• Join FlightAware (Why Join?)
  • Login
  • US Flag 
08:52AM EST


 

Airport Tracker/Info


-or-


 

Live Flight TrackerFlight Track Log ✈ JBU544 ✈ 22-Apr-2012 ✈ KPBI - KEWR

Flight Track Log - Related Links

Times and Time Zones

All times are in EDT time to prevent confusion due to time zone crossing. See the JBU544 flight status page for this flight to view local times or setup timezone preferences in your user account.

Time Position Orientation Groundspeed Altitude Reporting Facility
EDT Latitude Longitude Course Direction KTS MPH feet Rate Location/Type
12:35PM 26.6667 -80.0713 305° West  Level FlightAware Approximate
12:36PM 26.7341 -79.9836 281° West  Level FlightAware Approximate
12:37PM 26.8167 -80.0574 257° West  Level FlightAware Approximate
12:38PM 26.7783 -80.2469 321° Northwest 254 292 7,000  Level Miami Center
12:39PM 26.8294 -80.2928 324° Northwest 260 299 9,300 1,920 Climbing Miami Center
12:40PM 26.9011 -80.3506 338° Northwest 276 318 10,900 1,500 Climbing Miami Center
12:41PM 26.9881 -80.3906 337° Northwest 317 365 12,400 1,980 Climbing Miami Center
12:42PM 27.0828 -80.4356 335° Northwest 360 414 14,900 2,100 Climbing Miami Center
12:43PM 27.1675 -80.4800 322° Northwest 375 432 16,600 1,920 Climbing Miami Center
12:44PM 27.2533 -80.5553 329° Northwest 380 437 18,800 2,100 Climbing Miami Center
12:45PM 27.3475 -80.6189 332° Northwest 391 450 20,800 1,800 Climbing Miami Center
12:46PM 27.4442 -80.6758 332° Northwest 391 450 22,500 1,500 Climbing Miami Center
12:47PM 27.5428 -80.7353 333° Northwest 391 450 23,900 1,320 Climbing Miami Center
12:48PM 27.6414 -80.7925 332° Northwest 397 457 25,200 1,200 Climbing Miami Center
12:49PM 27.7461 -80.8550 332° Northwest 402 463 26,400 1,200 Climbing Miami Center
12:50PM 27.8531 -80.9197 333° Northwest 415 478 27,600 1,080 Climbing Miami Center
12:51PM 27.9597 -80.9822 332° Northwest 421 484 28,600 1,080 Climbing Miami Center
12:52PM 28.0683 -81.0472 331° Northwest 426 490 29,800 1,320 Climbing Miami Center
12:53PM 28.1750 -81.1150 332° Northwest 432 497 31,300 1,080 Climbing Miami Center
12:54PM 28.2836 -81.1803 332° Northwest 432 497 32,000 780 Climbing Miami Center
12:55PM 28.3814 -81.2386 333° Northwest 438 504 32,900 480 Climbing Jacksonville Center
12:56PM 28.4864 -81.3006 342° North 438 504 33,000  Climbing Jacksonville Center
12:57PM 28.6058 -81.3436 355° North 438 504 33,000  Level Jacksonville Center
12:58PM 28.7292 -81.3561 356° North 438 504 33,000  Level Jacksonville Center
12:59PM 28.8503 -81.3661 355° North 438 504 33,000 -60 Level Jacksonville Center
01:00PM 28.9736 -81.3783 356° North 438 504 32,900  Descending Jacksonville Center
01:01PM 29.0906 -81.3883 354° North 432 497 33,000  Climbing Jacksonville Center
01:02PM 29.2119 -81.4033 357° North 432 497 33,000  Level Jacksonville Center
01:03PM 29.3311 -81.4108 353° North 427 491 33,000  Level Jacksonville Center
01:04PM 29.4606 -81.4281 356° North 420 483 33,000  Level Jacksonville Center
01:05PM 29.5839 -81.4383 355° North 428 493 33,000  Level Jacksonville Center
01:06PM 29.7050 -81.4508 355° North 428 493 33,000  Level Jacksonville Center
01:07PM 29.8200 -81.4633 357° North 440 506 33,100  Climbing Jacksonville Center
01:08PM 29.9392 -81.4711 354° North 440 506 33,000 -60 Descending Jacksonville Center
01:09PM 30.0625 -81.4861 356° North 440 506 33,000  Level Jacksonville Center
01:10PM 30.1858 -81.4964 356° North 440 506 33,000  Level Jacksonville Center
01:11PM 30.3050 -81.5067 North 440 506 33,000  Level Jacksonville Center
01:12PM 30.4303 -81.5025 North 440 506 33,000  Level Jacksonville Center
01:13PM 30.5533 -81.4933 North 440 506 33,000  Level Jacksonville Center
01:14PM 30.6764 -81.4844 North 440 506 33,000  Level Jacksonville Center
01:15PM 30.8014 -81.4728 North 440 506 33,000  Level Jacksonville Center
01:16PM 30.9286 -81.4614 North 440 506 33,000  Level Jacksonville Center
01:17PM 31.0517 -81.4497 North 445 512 33,000  Level Jacksonville Center
01:18PM 31.1769 -81.4406 North 445 512 33,000  Level Jacksonville Center
01:19PM 31.3061 -81.4214 12° North 445 512 33,000  Level Jacksonville Center
01:20PM 31.4414 -81.3878 13° North 450 518 33,000  Level Jacksonville Center
01:21PM 31.5558 -81.3567 12° North 450 518 33,000  Level Jacksonville Center
01:22PM 31.6933 -81.3225 13° North 455 524 33,000  Level Jacksonville Center
01:23PM 31.8056 -81.2914 19° North 462 532 33,000  Level Jacksonville Center
01:24PM 31.9303 -81.2403 31° Northeast 462 532 33,000 120 Level Jacksonville Center
01:25PM 32.0419 -81.1622 29° Northeast 462 532 33,300 360 Climbing Jacksonville Center
01:26PM 32.1578 -81.0864 29° Northeast 462 532 33,800 540 Climbing Jacksonville Center
01:27PM 32.2861 -81.0028 30° Northeast 469 540 34,400 540 Climbing Jacksonville Center
01:28PM 32.3853 -80.9344 29° Northeast 458 527 34,900 300 Climbing Jacksonville Center
01:29PM 32.5008 -80.8581 31° Northeast 463 533 35,000  Climbing Jacksonville Center
01:30PM 32.6122 -80.7789 30° Northeast 463 533 35,000  Level Jacksonville Center
01:31PM 32.7258 -80.7022 26° Northeast 456 525 35,000  Level Jacksonville Center
01:32PM 32.8436 -80.6353 24° Northeast 456 525 35,000  Level Jacksonville Center
01:33PM 32.9656 -80.5703 26° Northeast 462 532 35,000  Level Jacksonville Center
01:34PM 33.0875 -80.5000 25° Northeast 475 547 35,000  Level Jacksonville Center
01:35PM 33.2114 -80.4322 26° Northeast 480 552 35,000  Level Jacksonville Center
01:36PM 33.3456 -80.3539 25° Northeast 480 552 35,000 -60 Level Jacksonville Center
01:37PM 33.4672 -80.2858 26° Northeast 480 552 34,900  Descending Jacksonville Center
01:38PM 33.5908 -80.2122 25° Northeast 480 552 35,000  Climbing Jacksonville Center
01:39PM 33.7106 -80.1436 26° Northeast 480 552 35,000  Level Jacksonville Center
01:40PM 33.8342 -80.0722 26° Northeast 480 552 35,000 -60 Level Jacksonville Center
01:41PM 33.9597 -79.9981 25° Northeast 480 552 34,900  Descending Jacksonville Center
01:42PM 34.0853 -79.9264 26° Northeast 485 558 35,000  Climbing Jacksonville Center
01:44PM 34.3300 -79.7817 25° Northeast 485 558 35,000  Level Washington Center
01:45PM 34.4533 -79.7122 25° Northeast 490 564 35,000  Level Washington Center
01:46PM 34.5811 -79.6406 28° Northeast 490 564 35,000  Level Washington Center
01:47PM 34.6878 -79.5725 26° Northeast 485 558 35,000  Level Washington Center
01:48PM 34.8111 -79.5003 26° Northeast 485 558 35,000  Level Washington Center
01:49PM 34.9386 -79.4253 26° Northeast 491 565 35,000  Level Washington Center
01:50PM 35.0642 -79.3500 25° Northeast 496 571 35,000  Level Washington Center
01:51PM 35.1897 -79.2772 26° Northeast 496 571 35,000  Level Washington Center
01:52PM 35.3044 -79.2086 26° Northeast 501 577 35,000  Level Washington Center
01:53PM 35.4594 -79.1161 26° Northeast 501 577 35,000  Level Washington Center
01:54PM 35.5847 -79.0425 26° Northeast 501 577 35,000  Level Washington Center
01:55PM 35.7164 -78.9639 27° Northeast 501 577 35,000  Level Washington Center
01:56PM 35.8436 -78.8847 26° Northeast 506 582 35,000 420 Level Washington Center
01:57PM 35.9625 -78.8125 26° Northeast 511 588 35,900 480 Climbing Washington Center
01:58PM 36.0919 -78.7331 26° Northeast 511 588 36,000  Climbing Washington Center
01:59PM 36.2233 -78.6533 26° Northeast 511 588 36,000  Level Washington Center
02:00PM 36.3506 -78.5758 27° Northeast 511 588 36,000  Level Washington Center
02:01PM 36.4797 -78.4956 27° Northeast 511 588 36,000  Level Washington Center
02:02PM 36.6194 -78.4075 27° Northeast 511 588 36,000  Level Washington Center
02:03PM 36.7339 -78.3339 27° Northeast 505 581 36,000  Level Washington Center
02:04PM 36.8778 -78.2431 27° Northeast 510 587 36,000  Level Washington Center
02:05PM 37.0111 -78.1564 26° Northeast 521 600 36,000  Level Washington Center
02:06PM 37.1358 -78.0800 27° Northeast 516 594 36,000  Level Washington Center
02:07PM 37.2669 -77.9953 27° Northeast 516 594 36,000  Level Washington Center
02:08PM 37.3958 -77.9131 28° Northeast 516 594 36,000  Level Washington Center
02:09PM 37.5247 -77.8256 34° Northeast 516 594 36,000  Level Washington Center
02:10PM 37.6433 -77.7242 35° Northeast 516 594 36,000  Level Washington Center
02:11PM 37.7619 -77.6197 36° Northeast 516 594 36,000  Level Washington Center
02:12PM 37.8783 -77.5122 36° Northeast 516 594 36,000  Level Washington Center
02:13PM 37.9947 -77.4047 36° Northeast 516 594 36,000  Level Washington Center
02:14PM 38.1111 -77.2992 37° Northeast 516 594 36,000  Level Washington Center
02:15PM 38.2272 -77.1881 35° Northeast 511 588 36,000  Level Washington Center
02:16PM 38.3475 -77.0794 37° Northeast 511 588 36,000  Level Washington Center
02:17PM 38.4656 -76.9678 35° Northeast 516 594 36,000  Level Washington Center
02:18PM 38.5836 -76.8611 37° Northeast 521 600 36,000 -420 Level Washington Center
02:19PM 38.7014 -76.7489 41° Northeast 526 605 35,200 -900 Descending Washington Center
02:20PM 38.8108 -76.6253 42° Northeast 526 605 34,200 -960 Descending Washington Center
02:21PM 38.9078 -76.5119 41° Northeast 520 598 33,300 -1,080 Descending Washington Center
02:22PM 39.0169 -76.3906 42° Northeast 520 598 32,100 -1,740 Descending Washington Center
02:23PM 39.1303 -76.2578 41° Northeast 520 598 29,800 -2,280 Descending Washington Center
02:24PM 39.2539 -76.1169 43° Northeast 526 605 27,600 -1,500 Descending Washington Center
02:25PM 39.3586 -75.9914 42° Northeast 521 600 26,900 -1,080 Descending Washington Center
02:26PM 39.4633 -75.8683 43° Northeast 511 588 25,500 -1,500 Descending Washington Center
02:27PM 39.5636 -75.7450 42° Northeast 506 582 23,900 -1,680 Descending Washington Center
02:28PM 39.6614 -75.6292 43° Northeast 487 560 22,200 -2,640 Descending Washington Center
02:29PM 39.7553 -75.5158 42° Northeast 474 545 18,700 -2,820 Descending Washington Center
02:30PM 39.8467 -75.4078 43° Northeast 456 525 16,700 -1,860 Descending Washington Center
02:31PM 39.9319 -75.3047 44° Northeast 434 499 15,000 -1,740 Descending Washington Center
02:32PM 40.0131 -75.2042 45° Northeast 414 476 13,300 -1,620 Descending Washington Center
02:34PM 40.1833 -74.9833 37° Northeast 360 414 10,000 -1,500 Descending New York TRACON
02:35PM 40.2500 -74.9167 52° Northeast 307 353 8,800 -1,080 Descending New York TRACON
02:36PM 40.3000 -74.8333 45° Northeast 302 348 8,000 -420 Descending New York TRACON
02:37PM 40.3500 -74.7667 11° North 244 281 8,000 -360 Level New York TRACON
02:38PM 40.4167 -74.7500 14° North 215 247 7,300 -900 Descending New York TRACON
02:39PM 40.4667 -74.7333 27° Northeast 209 241 6,200 -660 Descending New York TRACON
02:40PM 40.5167 -74.7000 123° Southeast 209 241 6,000 -360 Descending New York TRACON
02:41PM 40.5000 -74.6667 180° South 179 206 5,500 -540 Descending New York TRACON
02:42PM 40.4500 -74.6667 159° South 165 190 5,000 -300 Descending New York TRACON
02:43PM 40.4167 -74.6500 131° Southeast 171 197 5,000  Level New York TRACON
02:44PM 40.3833 -74.6000 131° Southeast 174 200 5,000  Level New York TRACON